sensor_id;sensor_type;location;lat;lon;timestamp;temperature;humidity
19435;DHT22;9853;50.848;4.108;2023-04-03T00:01:16;5.30;99.90
19435;DHT22;9853;50.848;4.108;2023-04-03T00:03:20;5.30;99.90
19435;DHT22;9853;50.848;4.108;2023-04-03T00:05:23;5.40;99.90
19435;DHT22;9853;50.848;4.108;2023-04-03T00:07:24;5.50;99.90
19435;DHT22;9853;50.848;4.108;2023-04-03T00:09:25;5.70;99.90
19435;DHT22;9853;50.848;4.108;2023-04-03T00:11:26;5.70;99.90
19435;DHT22;9853;50.848;4.108;2023-04-03T00:13:31;5.60;99.90
19435;DHT22;9853;50.848;4.108;2023-04-03T00:15:32;5.50;99.90
19435;DHT22;9853;50.848;4.108;2023-04-03T00:17:36;5.50;99.90
19435;DHT22;9853;50.848;4.108;2023-04-03T00:19:37;5.40;99.90
19435;DHT22;9853;50.848;4.108;2023-04-03T00:21:38;5.40;99.90
19435;DHT22;9853;50.848;4.108;2023-04-03T00:23:39;5.30;99.90
19435;DHT22;9853;50.848;4.108;2023-04-03T00:25:40;5.30;99.90
19435;DHT22;9853;50.848;4.108;2023-04-03T00:27:41;5.20;99.90
19435;DHT22;9853;50.848;4.108;2023-04-03T00:29:41;5.20;99.90
19435;DHT22;9853;50.848;4.108;2023-04-03T00:31:42;5.10;99.90
19435;DHT22;9853;50.848;4.108;2023-04-03T00:33:43;5.20;99.90
19435;DHT22;9853;50.848;4.108;2023-04-03T00:35:44;5.20;99.90
19435;DHT22;9853;50.848;4.108;2023-04-03T00:37:50;5.30;99.90
19435;DHT22;9853;50.848;4.108;2023-04-03T00:39:54;5.20;99.90
19435;DHT22;9853;50.848;4.108;2023-04-03T00:41:57;5.20;99.90
19435;DHT22;9853;50.848;4.108;2023-04-03T00:43:58;5.20;99.90
19435;DHT22;9853;50.848;4.108;2023-04-03T00:46:06;5.20;99.90
19435;DHT22;9853;50.848;4.108;2023-04-03T00:48:11;5.10;99.90
19435;DHT22;9853;50.848;4.108;2023-04-03T00:50:14;5.10;99.90
19435;DHT22;9853;50.848;4.108;2023-04-03T00:52:25;5.10;99.90
19435;DHT22;9853;50.848;4.108;2023-04-03T00:54:29;5.10;99.90
19435;DHT22;9853;50.848;4.108;2023-04-03T00:56:38;5.20;99.90
19435;DHT22;9853;50.848;4.108;2023-04-03T00:58:50;5.20;99.90
19435;DHT22;9853;50.848;4.108;2023-04-03T01:00:58;5.20;99.90
19435;DHT22;9853;50.848;4.108;2023-04-03T01:03:05;5.10;99.90
19435;DHT22;9853;50.848;4.108;2023-04-03T01:05:16;4.60;99.90
19435;DHT22;9853;50.848;4.108;2023-04-03T01:07:27;4.10;99.90
19435;DHT22;9853;50.848;4.108;2023-04-03T01:09:29;3.70;99.90
19435;DHT22;9853;50.848;4.108;2023-04-03T01:11:31;3.60;99.90
19435;DHT22;9853;50.848;4.108;2023-04-03T01:13:34;4.00;99.90
19435;DHT22;9853;50.848;4.108;2023-04-03T01:15:35;4.50;99.90
19435;DHT22;9853;50.848;4.108;2023-04-03T01:17:42;5.00;99.90
19435;DHT22;9853;50.848;4.108;2023-04-03T01:19:48;5.30;99.90
19435;DHT22;9853;50.848;4.108;2023-04-03T01:22:14;5.20;99.90
19435;DHT22;9853;50.848;4.108;2023-04-03T01:24:32;5.20;99.90
19435;DHT22;9853;50.848;4.108;2023-04-03T01:26:34;5.10;99.90
19435;DHT22;9853;50.848;4.108;2023-04-03T01:28:36;5.10;99.90
19435;DHT22;9853;50.848;4.108;2023-04-03T01:32:45;5.00;99.90
19435;DHT22;9853;50.848;4.108;2023-04-03T01:34:48;5.00;99.90
19435;DHT22;9853;50.848;4.108;2023-04-03T01:36:50;4.90;99.90
19435;DHT22;9853;50.848;4.108;2023-04-03T01:38:56;4.80;99.90
19435;DHT22;9853;50.848;4.108;2023-04-03T01:40:57;4.80;99.90
19435;DHT22;9853;50.848;4.108;2023-04-03T01:43:03;4.80;99.90
19435;DHT22;9853;50.848;4.108;2023-04-03T01:45:05;4.80;99.90
19435;DHT22;9853;50.848;4.108;2023-04-03T01:47:07;4.80;99.90
19435;DHT22;9853;50.848;4.108;2023-04-03T01:49:08;4.80;99.90
19435;DHT22;9853;50.848;4.108;2023-04-03T01:51:12;4.70;99.90
19435;DHT22;9853;50.848;4.108;2023-04-03T01:53:13;4.70;99.90
19435;DHT22;9853;50.848;4.108;2023-04-03T01:55:16;4.60;99.90
19435;DHT22;9853;50.848;4.108;2023-04-03T01:57:17;4.50;99.90
19435;DHT22;9853;50.848;4.108;2023-04-03T01:59:21;4.50;99.90
19435;DHT22;9853;50.848;4.108;2023-04-03T02:01:22;4.50;99.90
19435;DHT22;9853;50.848;4.108;2023-04-03T02:03:23;4.60;99.90
19435;DHT22;9853;50.848;4.108;2023-04-03T02:05:26;4.60;99.90
19435;DHT22;9853;50.848;4.108;2023-04-03T02:07:30;4.50;99.90
19435;DHT22;9853;50.848;4.108;2023-04-03T02:09:31;4.60;99.90
19435;DHT22;9853;50.848;4.108;2023-04-03T02:11:32;4.60;99.90
19435;DHT22;9853;50.848;4.108;2023-04-03T02:13:33;4.60;99.90
19435;DHT22;9853;50.848;4.108;2023-04-03T02:15:38;4.60;99.90
19435;DHT22;9853;50.848;4.108;2023-04-03T02:17:41;4.60;99.90
19435;DHT22;9853;50.848;4.108;2023-04-03T02:19:42;4.60;99.90
19435;DHT22;9853;50.848;4.108;2023-04-03T02:21:43;4.70;99.90
19435;DHT22;9853;50.848;4.108;2023-04-03T02:23:44;4.60;99.90
19435;DHT22;9853;50.848;4.108;2023-04-03T02:25:47;4.60;99.90
19435;DHT22;9853;50.848;4.108;2023-04-03T02:27:49;4.60;99.90
19435;DHT22;9853;50.848;4.108;2023-04-03T02:29:50;4.50;99.90
19435;DHT22;9853;50.848;4.108;2023-04-03T02:31:51;4.50;99.90
19435;DHT22;9853;50.848;4.108;2023-04-03T02:33:52;4.40;99.90
19435;DHT22;9853;50.848;4.108;2023-04-03T02:35:56;4.30;99.90
19435;DHT22;9853;50.848;4.108;2023-04-03T02:37:57;4.30;99.90
19435;DHT22;9853;50.848;4.108;2023-04-03T02:39:59;4.20;99.90
19435;DHT22;9853;50.848;4.108;2023-04-03T02:42:02;4.10;99.90
19435;DHT22;9853;50.848;4.108;2023-04-03T02:44:05;4.10;99.90
19435;DHT22;9853;50.848;4.108;2023-04-03T02:46:07;4.00;99.90
19435;DHT22;9853;50.848;4.108;2023-04-03T02:48:08;4.00;99.90
19435;DHT22;9853;50.848;4.108;2023-04-03T02:50:09;4.00;99.90
19435;DHT22;9853;50.848;4.108;2023-04-03T02:52:10;4.00;99.90
19435;DHT22;9853;50.848;4.108;2023-04-03T02:54:13;4.00;99.90
19435;DHT22;9853;50.848;4.108;2023-04-03T02:56:19;3.90;99.90
19435;DHT22;9853;50.848;4.108;2023-04-03T02:58:21;3.90;99.90
19435;DHT22;9853;50.848;4.108;2023-04-03T03:00:24;3.90;99.90
19435;DHT22;9853;50.848;4.108;2023-04-03T03:02:25;3.80;99.90
19435;DHT22;9853;50.848;4.108;2023-04-03T03:04:26;3.80;99.90
19435;DHT22;9853;50.848;4.108;2023-04-03T03:06:31;3.80;99.90
19435;DHT22;9853;50.848;4.108;2023-04-03T03:08:32;3.80;99.90
19435;DHT22;9853;50.848;4.108;2023-04-03T03:10:35;3.80;99.90
19435;DHT22;9853;50.848;4.108;2023-04-03T03:12:36;3.90;99.90
19435;DHT22;9853;50.848;4.108;2023-04-03T03:14:44;3.90;99.90
19435;DHT22;9853;50.848;4.108;2023-04-03T03:16:47;3.90;99.90
19435;DHT22;9853;50.848;4.108;2023-04-03T03:18:55;4.00;99.90
19435;DHT22;9853;50.848;4.108;2023-04-03T03:20:59;4.10;99.90
19435;DHT22;9853;50.848;4.108;2023-04-03T03:23:05;4.10;99.90
19435;DHT22;9853;50.848;4.108;2023-04-03T03:25:15;4.20;99.90
19435;DHT22;9853;50.848;4.108;2023-04-03T03:27:16;4.20;99.90
19435;DHT22;9853;50.848;4.108;2023-04-03T03:29:21;4.20;99.90
19435;DHT22;9853;50.848;4.108;2023-04-03T03:31:27;4.20;99.90
19435;DHT22;9853;50.848;4.108;2023-04-03T03:33:35;4.10;99.90
19435;DHT22;9853;50.848;4.108;2023-04-03T03:35:38;4.00;99.90
19435;DHT22;9853;50.848;4.108;2023-04-03T03:37:44;4.00;99.90
19435;DHT22;9853;50.848;4.108;2023-04-03T03:39:54;4.00;99.90
19435;DHT22;9853;50.848;4.108;2023-04-03T03:41:58;3.90;99.90
19435;DHT22;9853;50.848;4.108;2023-04-03T03:44:01;3.80;99.90
19435;DHT22;9853;50.848;4.108;2023-04-03T03:46:07;3.80;99.90
19435;DHT22;9853;50.848;4.108;2023-04-03T03:48:16;3.80;99.90
19435;DHT22;9853;50.848;4.108;2023-04-03T03:50:20;3.80;99.90
19435;DHT22;9853;50.848;4.108;2023-04-03T03:52:32;3.90;99.90
19435;DHT22;9853;50.848;4.108;2023-04-03T03:54:36;3.90;99.90
19435;DHT22;9853;50.848;4.108;2023-04-03T03:56:40;3.90;99.90
19435;DHT22;9853;50.848;4.108;2023-04-03T03:58:49;4.00;99.90
19435;DHT22;9853;50.848;4.108;2023-04-03T04:00:53;3.90;99.90
19435;DHT22;9853;50.848;4.108;2023-04-03T04:02:59;3.90;99.90
19435;DHT22;9853;50.848;4.108;2023-04-03T04:05:26;3.90;99.90
19435;DHT22;9853;50.848;4.108;2023-04-03T04:07:31;4.00;99.90
19435;DHT22;9853;50.848;4.108;2023-04-03T04:09:42;3.90;99.90
19435;DHT22;9853;50.848;4.108;2023-04-03T04:11:48;3.90;99.90
19435;DHT22;9853;50.848;4.108;2023-04-03T04:13:54;3.90;99.90
19435;DHT22;9853;50.848;4.108;2023-04-03T04:15:59;3.80;99.90
19435;DHT22;9853;50.848;4.108;2023-04-03T04:18:14;3.80;99.90
19435;DHT22;9853;50.848;4.108;2023-04-03T04:20:26;3.60;99.90
19435;DHT22;9853;50.848;4.108;2023-04-03T04:22:30;3.50;99.90
19435;DHT22;9853;50.848;4.108;2023-04-03T04:24:34;3.50;99.90
19435;DHT22;9853;50.848;4.108;2023-04-03T04:26:37;3.50;99.90
19435;DHT22;9853;50.848;4.108;2023-04-03T04:28:38;3.60;99.90
19435;DHT22;9853;50.848;4.108;2023-04-03T04:30:42;3.60;99.90
19435;DHT22;9853;50.848;4.108;2023-04-03T04:32:55;3.70;99.90
19435;DHT22;9853;50.848;4.108;2023-04-03T04:34:59;3.80;99.90
19435;DHT22;9853;50.848;4.108;2023-04-03T04:37:17;3.80;99.90
19435;DHT22;9853;50.848;4.108;2023-04-03T04:39:22;3.80;99.90
19435;DHT22;9853;50.848;4.108;2023-04-03T04:41:26;3.80;99.90
19435;DHT22;9853;50.848;4.108;2023-04-03T04:43:27;3.80;99.90
19435;DHT22;9853;50.848;4.108;2023-04-03T04:45:29;3.70;99.90
19435;DHT22;9853;50.848;4.108;2023-04-03T04:47:30;3.70;99.90
19435;DHT22;9853;50.848;4.108;2023-04-03T04:49:31;3.60;99.90
19435;DHT22;9853;50.848;4.108;2023-04-03T04:51:32;3.50;99.90
19435;DHT22;9853;50.848;4.108;2023-04-03T04:53:36;3.40;99.90
19435;DHT22;9853;50.848;4.108;2023-04-03T04:55:43;3.30;99.90
19435;DHT22;9853;50.848;4.108;2023-04-03T04:57:46;3.20;99.90
19435;DHT22;9853;50.848;4.108;2023-04-03T04:59:50;3.10;99.90
19435;DHT22;9853;50.848;4.108;2023-04-03T05:01:51;3.00;99.90
19435;DHT22;9853;50.848;4.108;2023-04-03T05:03:55;3.00;99.90
19435;DHT22;9853;50.848;4.108;2023-04-03T05:09:09;3.00;99.90
19435;DHT22;9853;50.848;4.108;2023-04-03T05:11:50;3.00;99.90
19435;DHT22;9853;50.848;4.108;2023-04-03T05:14:14;2.90;99.90
19435;DHT22;9853;50.848;4.108;2023-04-03T05:16:34;2.90;99.90
19435;DHT22;9853;50.848;4.108;2023-04-03T05:19:13;2.90;99.90
19435;DHT22;9853;50.848;4.108;2023-04-03T05:21:23;2.80;99.90
19435;DHT22;9853;50.848;4.108;2023-04-03T05:23:55;2.80;99.90
19435;DHT22;9853;50.848;4.108;2023-04-03T05:26:15;2.80;99.90
19435;DHT22;9853;50.848;4.108;2023-04-03T05:31:01;2.80;99.90
19435;DHT22;9853;50.848;4.108;2023-04-03T05:33:26;2.80;99.90
19435;DHT22;9853;50.848;4.108;2023-04-03T05:36:19;2.80;99.90
19435;DHT22;9853;50.848;4.108;2023-04-03T05:42:18;2.90;99.90
19435;DHT22;9853;50.848;4.108;2023-04-03T05:44:55;2.90;99.90
19435;DHT22;9853;50.848;4.108;2023-04-03T05:47:08;2.90;99.90
19435;DHT22;9853;50.848;4.108;2023-04-03T05:49:24;3.00;99.90
19435;DHT22;9853;50.848;4.108;2023-04-03T05:51:41;3.10;99.90
19435;DHT22;9853;50.848;4.108;2023-04-03T05:54:34;3.30;99.90
19435;DHT22;9853;50.848;4.108;2023-04-03T05:57:19;3.40;99.90
19435;DHT22;9853;50.848;4.108;2023-04-03T05:59:45;3.60;99.90
19435;DHT22;9853;50.848;4.108;2023-04-03T06:05:05;3.80;99.90
19435;DHT22;9853;50.848;4.108;2023-04-03T06:07:20;4.00;99.90
19435;DHT22;9853;50.848;4.108;2023-04-03T06:09:26;4.00;99.90
19435;DHT22;9853;50.848;4.108;2023-04-03T06:11:36;4.00;99.90
19435;DHT22;9853;50.848;4.108;2023-04-03T06:14:19;3.90;99.90
19435;DHT22;9853;50.848;4.108;2023-04-03T06:16:21;3.80;99.90
19435;DHT22;9853;50.848;4.108;2023-04-03T06:18:31;3.70;99.90
19435;DHT22;9853;50.848;4.108;2023-04-03T06:20:38;3.70;99.90
19435;DHT22;9853;50.848;4.108;2023-04-03T06:22:55;3.70;99.90
19435;DHT22;9853;50.848;4.108;2023-04-03T06:24:59;3.60;99.90
19435;DHT22;9853;50.848;4.108;2023-04-03T06:27:14;3.60;99.90
19435;DHT22;9853;50.848;4.108;2023-04-03T06:29:22;3.70;99.90
19435;DHT22;9853;50.848;4.108;2023-04-03T06:31:25;3.70;99.90
19435;DHT22;9853;50.848;4.108;2023-04-03T06:33:29;3.80;99.90
19435;DHT22;9853;50.848;4.108;2023-04-03T06:35:44;3.80;99.90
19435;DHT22;9853;50.848;4.108;2023-04-03T06:37:51;3.90;99.90
19435;DHT22;9853;50.848;4.108;2023-04-03T06:39:55;3.90;99.90
19435;DHT22;9853;50.848;4.108;2023-04-03T06:41:56;4.00;99.90
19435;DHT22;9853;50.848;4.108;2023-04-03T06:44:28;4.10;99.90
19435;DHT22;9853;50.848;4.108;2023-04-03T06:46:41;4.30;99.90
19435;DHT22;9853;50.848;4.108;2023-04-03T06:48:50;4.40;99.90
19435;DHT22;9853;50.848;4.108;2023-04-03T06:50:53;4.50;99.90
19435;DHT22;9853;50.848;4.108;2023-04-03T06:52:58;4.60;99.90
19435;DHT22;9853;50.848;4.108;2023-04-03T06:55:26;4.50;99.90
19435;DHT22;9853;50.848;4.108;2023-04-03T06:57:34;4.40;99.90
19435;DHT22;9853;50.848;4.108;2023-04-03T06:59:40;4.40;99.90
19435;DHT22;9853;50.848;4.108;2023-04-03T07:01:42;4.40;99.90
19435;DHT22;9853;50.848;4.108;2023-04-03T07:03:44;4.40;99.90
19435;DHT22;9853;50.848;4.108;2023-04-03T07:05:51;4.40;99.90
19435;DHT22;9853;50.848;4.108;2023-04-03T07:07:55;4.50;99.90
19435;DHT22;9853;50.848;4.108;2023-04-03T07:10:13;4.60;99.90
19435;DHT22;9853;50.848;4.108;2023-04-03T07:12:49;4.80;99.90
19435;DHT22;9853;50.848;4.108;2023-04-03T07:15:24;5.20;99.90
19435;DHT22;9853;50.848;4.108;2023-04-03T07:17:56;6.30;99.90
19435;DHT22;9853;50.848;4.108;2023-04-03T07:20:24;7.90;99.90
19435;DHT22;9853;50.848;4.108;2023-04-03T07:22:49;9.10;99.90
19435;DHT22;9853;50.848;4.108;2023-04-03T07:25:03;10.20;99.90
19435;DHT22;9853;50.848;4.108;2023-04-03T07:27:34;10.90;99.90
19435;DHT22;9853;50.848;4.108;2023-04-03T07:29:40;11.40;99.90
19435;DHT22;9853;50.848;4.108;2023-04-03T07:31:50;11.40;99.90
19435;DHT22;9853;50.848;4.108;2023-04-03T07:33:56;11.30;99.90
19435;DHT22;9853;50.848;4.108;2023-04-03T07:36:01;10.80;99.90
19435;DHT22;9853;50.848;4.108;2023-04-03T07:41:00;10.70;99.90
19435;DHT22;9853;50.848;4.108;2023-04-03T07:46:08;11.40;99.90
19435;DHT22;9853;50.848;4.108;2023-04-03T07:48:16;10.90;99.90
19435;DHT22;9853;50.848;4.108;2023-04-03T07:50:23;10.10;99.90
19435;DHT22;9853;50.848;4.108;2023-04-03T07:52:24;10.60;99.90
19435;DHT22;9853;50.848;4.108;2023-04-03T07:54:32;11.20;99.90
19435;DHT22;9853;50.848;4.108;2023-04-03T07:56:33;11.80;99.90
19435;DHT22;9853;50.848;4.108;2023-04-03T07:59:02;11.80;99.90
19435;DHT22;9853;50.848;4.108;2023-04-03T08:01:16;11.90;99.90
19435;DHT22;9853;50.848;4.108;2023-04-03T08:03:32;12.00;99.90
19435;DHT22;9853;50.848;4.108;2023-04-03T08:05:49;11.60;99.90
19435;DHT22;9853;50.848;4.108;2023-04-03T08:07:55;11.30;99.90
19435;DHT22;9853;50.848;4.108;2023-04-03T08:10:20;11.20;99.90
19435;DHT22;9853;50.848;4.108;2023-04-03T08:12:22;11.10;99.90
19435;DHT22;9853;50.848;4.108;2023-04-03T08:14:32;11.20;99.90
19435;DHT22;9853;50.848;4.108;2023-04-03T08:16:41;11.20;99.90
19435;DHT22;9853;50.848;4.108;2023-04-03T08:21:56;11.70;99.90
19435;DHT22;9853;50.848;4.108;2023-04-03T08:24:28;12.00;99.90
19435;DHT22;9853;50.848;4.108;2023-04-03T08:26:37;11.80;99.90
19435;DHT22;9853;50.848;4.108;2023-04-03T08:28:48;11.10;99.90
19435;DHT22;9853;50.848;4.108;2023-04-03T08:30:49;11.30;99.90
19435;DHT22;9853;50.848;4.108;2023-04-03T08:33:01;11.80;99.90
19435;DHT22;9853;50.848;4.108;2023-04-03T08:35:04;12.00;99.90
19435;DHT22;9853;50.848;4.108;2023-04-03T08:37:05;12.10;99.90
19435;DHT22;9853;50.848;4.108;2023-04-03T08:39:09;12.40;99.90
19435;DHT22;9853;50.848;4.108;2023-04-03T08:47:00;12.20;99.90
19435;DHT22;9853;50.848;4.108;2023-04-03T08:49:48;12.20;99.90
19435;DHT22;9853;50.848;4.108;2023-04-03T08:51:52;11.20;99.90
19435;DHT22;9853;50.848;4.108;2023-04-03T08:54:33;10.80;99.90
19435;DHT22;9853;50.848;4.108;2023-04-03T08:56:55;10.50;99.90
19435;DHT22;9853;50.848;4.108;2023-04-03T08:59:21;10.50;99.90
19435;DHT22;9853;50.848;4.108;2023-04-03T09:01:42;11.10;99.90
19435;DHT22;9853;50.848;4.108;2023-04-03T09:03:50;11.30;99.90
19435;DHT22;9853;50.848;4.108;2023-04-03T09:06:31;11.00;99.90
19435;DHT22;9853;50.848;4.108;2023-04-03T09:12:18;10.50;99.90
19435;DHT22;9853;50.848;4.108;2023-04-03T09:17:21;11.00;99.90
19435;DHT22;9853;50.848;4.108;2023-04-03T09:24:37;11.40;99.90
19435;DHT22;9853;50.848;4.108;2023-04-03T09:27:30;11.70;99.90
19435;DHT22;9853;50.848;4.108;2023-04-03T09:30:26;11.50;99.90
19435;DHT22;9853;50.848;4.108;2023-04-03T09:32:50;11.20;99.90
19435;DHT22;9853;50.848;4.108;2023-04-03T09:36:08;11.20;99.90
19435;DHT22;9853;50.848;4.108;2023-04-03T09:38:48;11.80;99.90
19435;DHT22;9853;50.848;4.108;2023-04-03T09:41:28;11.60;99.90
19435;DHT22;9853;50.848;4.108;2023-04-03T09:46:25;10.80;99.90
19435;DHT22;9853;50.848;4.108;2023-04-03T09:48:38;10.80;99.90
19435;DHT22;9853;50.848;4.108;2023-04-03T09:54:39;10.30;99.90
19435;DHT22;9853;50.848;4.108;2023-04-03T09:57:04;11.20;99.90
19435;DHT22;9853;50.848;4.108;2023-04-03T09:59:39;11.00;99.90
19435;DHT22;9853;50.848;4.108;2023-04-03T10:06:50;10.90;99.90
19435;DHT22;9853;50.848;4.108;2023-04-03T10:09:47;10.50;99.90
19435;DHT22;9853;50.848;4.108;2023-04-03T10:16:51;9.80;99.90
19435;DHT22;9853;50.848;4.108;2023-04-03T10:22:06;9.80;99.90
19435;DHT22;9853;50.848;4.108;2023-04-03T10:32:38;9.70;99.90
19435;DHT22;9853;50.848;4.108;2023-04-03T10:34:55;9.50;99.90
19435;DHT22;9853;50.848;4.108;2023-04-03T10:37:30;9.50;99.90
19435;DHT22;9853;50.848;4.108;2023-04-03T10:42:44;9.50;99.90
19435;DHT22;9853;50.848;4.108;2023-04-03T10:52:45;10.10;99.90
19435;DHT22;9853;50.848;4.108;2023-04-03T10:57:37;9.60;99.90
19435;DHT22;9853;50.848;4.108;2023-04-03T11:00:03;9.80;99.90
19435;DHT22;9853;50.848;4.108;2023-04-03T11:02:32;10.00;99.90
19435;DHT22;9853;50.848;4.108;2023-04-03T11:07:34;10.00;99.90
19435;DHT22;9853;50.848;4.108;2023-04-03T11:10:11;10.20;99.90
19435;DHT22;9853;50.848;4.108;2023-04-03T11:12:38;10.20;99.90
19435;DHT22;9853;50.848;4.108;2023-04-03T11:15:16;10.00;99.90
19435;DHT22;9853;50.848;4.108;2023-04-03T11:17:35;9.90;99.90
19435;DHT22;9853;50.848;4.108;2023-04-03T11:23:19;10.20;99.90
19435;DHT22;9853;50.848;4.108;2023-04-03T11:25:38;10.10;99.90
19435;DHT22;9853;50.848;4.108;2023-04-03T11:27:51;10.10;99.90
19435;DHT22;9853;50.848;4.108;2023-04-03T11:30:23;10.20;99.90
19435;DHT22;9853;50.848;4.108;2023-04-03T11:33:11;10.30;99.90
19435;DHT22;9853;50.848;4.108;2023-04-03T11:35:53;10.60;99.90
19435;DHT22;9853;50.848;4.108;2023-04-03T11:38:21;10.50;99.90
19435;DHT22;9853;50.848;4.108;2023-04-03T11:40:51;10.70;99.90
19435;DHT22;9853;50.848;4.108;2023-04-03T11:43:32;10.60;99.90
19435;DHT22;9853;50.848;4.108;2023-04-03T11:46:00;10.60;99.90
19435;DHT22;9853;50.848;4.108;2023-04-03T11:50:41;10.40;99.90
19435;DHT22;9853;50.848;4.108;2023-04-03T11:58:11;10.40;99.90
19435;DHT22;9853;50.848;4.108;2023-04-03T12:02:44;10.30;99.90
19435;DHT22;9853;50.848;4.108;2023-04-03T12:05:28;10.50;99.90
19435;DHT22;9853;50.848;4.108;2023-04-03T12:08:15;10.70;99.90
19435;DHT22;9853;50.848;4.108;2023-04-03T12:10:19;11.00;99.90
19435;DHT22;9853;50.848;4.108;2023-04-03T12:12:55;11.00;99.90
19435;DHT22;9853;50.848;4.108;2023-04-03T12:18:42;10.70;99.90
19435;DHT22;9853;50.848;4.108;2023-04-03T12:20:56;10.60;99.90
19435;DHT22;9853;50.848;4.108;2023-04-03T12:25:50;10.80;99.90
19435;DHT22;9853;50.848;4.108;2023-04-03T12:27:52;10.60;99.90
19435;DHT22;9853;50.848;4.108;2023-04-03T12:30:25;10.80;99.90
19435;DHT22;9853;50.848;4.108;2023-04-03T12:32:54;10.80;99.90
19435;DHT22;9853;50.848;4.108;2023-04-03T12:35:23;10.60;99.90
19435;DHT22;9853;50.848;4.108;2023-04-03T12:37:43;10.70;99.90
19435;DHT22;9853;50.848;4.108;2023-04-03T12:39:59;10.70;99.90
19435;DHT22;9853;50.848;4.108;2023-04-03T12:42:23;10.80;99.90
19435;DHT22;9853;50.848;4.108;2023-04-03T12:44:35;10.90;99.90
19435;DHT22;9853;50.848;4.108;2023-04-03T12:46:53;10.80;99.90
19435;DHT22;9853;50.848;4.108;2023-04-03T12:48:58;10.70;99.90
19435;DHT22;9853;50.848;4.108;2023-04-03T12:51:02;10.40;99.90
19435;DHT22;9853;50.848;4.108;2023-04-03T12:55:22;10.80;99.90
19435;DHT22;9853;50.848;4.108;2023-04-03T12:57:37;11.00;99.90
19435;DHT22;9853;50.848;4.108;2023-04-03T12:59:41;10.70;99.90
19435;DHT22;9853;50.848;4.108;2023-04-03T13:01:57;10.70;99.90
19435;DHT22;9853;50.848;4.108;2023-04-03T13:04:04;10.60;99.90
19435;DHT22;9853;50.848;4.108;2023-04-03T13:06:05;10.50;99.90
19435;DHT22;9853;50.848;4.108;2023-04-03T13:08:15;10.60;99.90
19435;DHT22;9853;50.848;4.108;2023-04-03T13:10:20;10.80;99.90
19435;DHT22;9853;50.848;4.108;2023-04-03T13:12:21;10.90;99.90
19435;DHT22;9853;50.848;4.108;2023-04-03T13:14:28;10.90;99.90
19435;DHT22;9853;50.848;4.108;2023-04-03T13:16:29;11.00;99.90
19435;DHT22;9853;50.848;4.108;2023-04-03T13:18:34;11.10;99.90
19435;DHT22;9853;50.848;4.108;2023-04-03T13:20:36;11.20;99.90
19435;DHT22;9853;50.848;4.108;2023-04-03T13:22:46;11.00;99.90
19435;DHT22;9853;50.848;4.108;2023-04-03T13:24:52;10.90;99.90
19435;DHT22;9853;50.848;4.108;2023-04-03T13:26:54;11.10;99.90
19435;DHT22;9853;50.848;4.108;2023-04-03T13:29:14;10.90;99.90
19435;DHT22;9853;50.848;4.108;2023-04-03T13:31:36;11.20;99.90
19435;DHT22;9853;50.848;4.108;2023-04-03T13:33:51;11.10;99.90
19435;DHT22;9853;50.848;4.108;2023-04-03T13:36:17;11.20;99.90
19435;DHT22;9853;50.848;4.108;2023-04-03T13:40:19;11.40;99.90
19435;DHT22;9853;50.848;4.108;2023-04-03T13:42:29;11.20;99.90
19435;DHT22;9853;50.848;4.108;2023-04-03T13:44:35;11.30;99.90
19435;DHT22;9853;50.848;4.108;2023-04-03T13:46:39;11.20;99.90
19435;DHT22;9853;50.848;4.108;2023-04-03T13:48:49;11.30;99.90
19435;DHT22;9853;50.848;4.108;2023-04-03T13:53:12;10.80;99.90
19435;DHT22;9853;50.848;4.108;2023-04-03T13:55:26;10.60;99.90
19435;DHT22;9853;50.848;4.108;2023-04-03T13:57:33;10.90;99.90
19435;DHT22;9853;50.848;4.108;2023-04-03T13:59:35;10.90;99.90
19435;DHT22;9853;50.848;4.108;2023-04-03T14:06:43;11.00;99.90
19435;DHT22;9853;50.848;4.108;2023-04-03T14:08:51;11.10;99.90
19435;DHT22;9853;50.848;4.108;2023-04-03T14:10:53;11.20;99.90
19435;DHT22;9853;50.848;4.108;2023-04-03T14:12:57;11.30;99.90
19435;DHT22;9853;50.848;4.108;2023-04-03T14:15:03;11.40;99.90
19435;DHT22;9853;50.848;4.108;2023-04-03T14:17:15;11.30;99.90
19435;DHT22;9853;50.848;4.108;2023-04-03T14:19:27;11.20;99.90
19435;DHT22;9853;50.848;4.108;2023-04-03T14:21:28;11.10;99.90
19435;DHT22;9853;50.848;4.108;2023-04-03T14:23:29;11.10;99.90
19435;DHT22;9853;50.848;4.108;2023-04-03T14:28:16;11.00;99.90
19435;DHT22;9853;50.848;4.108;2023-04-03T14:30:33;11.10;99.90
19435;DHT22;9853;50.848;4.108;2023-04-03T14:32:34;10.80;99.90
19435;DHT22;9853;50.848;4.108;2023-04-03T14:34:35;10.80;99.90
19435;DHT22;9853;50.848;4.108;2023-04-03T14:36:37;10.70;99.90
19435;DHT22;9853;50.848;4.108;2023-04-03T14:38:38;10.70;99.90
19435;DHT22;9853;50.848;4.108;2023-04-03T14:40:40;10.70;99.90
19435;DHT22;9853;50.848;4.108;2023-04-03T14:42:41;10.90;99.90
19435;DHT22;9853;50.848;4.108;2023-04-03T14:44:42;11.00;99.90
19435;DHT22;9853;50.848;4.108;2023-04-03T14:46:44;11.20;99.90
19435;DHT22;9853;50.848;4.108;2023-04-03T14:48:45;11.50;99.90
19435;DHT22;9853;50.848;4.108;2023-04-03T14:50:47;11.30;99.90
19435;DHT22;9853;50.848;4.108;2023-04-03T14:52:50;11.10;99.90
19435;DHT22;9853;50.848;4.108;2023-04-03T14:54:52;11.10;99.90
19435;DHT22;9853;50.848;4.108;2023-04-03T14:56:58;11.10;99.90
19435;DHT22;9853;50.848;4.108;2023-04-03T14:59:00;11.10;99.90
19435;DHT22;9853;50.848;4.108;2023-04-03T15:01:01;10.90;99.90
19435;DHT22;9853;50.848;4.108;2023-04-03T15:03:02;10.90;99.90
19435;DHT22;9853;50.848;4.108;2023-04-03T15:05:07;11.10;99.90
19435;DHT22;9853;50.848;4.108;2023-04-03T15:07:09;11.30;99.90
19435;DHT22;9853;50.848;4.108;2023-04-03T15:09:28;11.30;99.90
19435;DHT22;9853;50.848;4.108;2023-04-03T15:11:29;11.20;99.90
19435;DHT22;9853;50.848;4.108;2023-04-03T15:13:30;11.30;99.90
19435;DHT22;9853;50.848;4.108;2023-04-03T15:15:31;11.00;99.90
19435;DHT22;9853;50.848;4.108;2023-04-03T15:17:32;11.00;99.90
19435;DHT22;9853;50.848;4.108;2023-04-03T15:19:36;11.00;99.90
19435;DHT22;9853;50.848;4.108;2023-04-03T15:21:38;11.10;99.90
19435;DHT22;9853;50.848;4.108;2023-04-03T15:23:39;11.10;99.90
19435;DHT22;9853;50.848;4.108;2023-04-03T15:25:40;11.20;99.90
19435;DHT22;9853;50.848;4.108;2023-04-03T15:27:42;11.10;99.90
19435;DHT22;9853;50.848;4.108;2023-04-03T15:29:43;11.10;99.90
19435;DHT22;9853;50.848;4.108;2023-04-03T15:31:44;11.00;99.90
19435;DHT22;9853;50.848;4.108;2023-04-03T15:33:45;11.10;99.90
19435;DHT22;9853;50.848;4.108;2023-04-03T15:35:46;11.30;99.90
19435;DHT22;9853;50.848;4.108;2023-04-03T15:37:46;11.30;99.90
19435;DHT22;9853;50.848;4.108;2023-04-03T15:39:48;11.00;99.90
19435;DHT22;9853;50.848;4.108;2023-04-03T15:41:49;10.90;99.90
19435;DHT22;9853;50.848;4.108;2023-04-03T15:43:52;11.00;99.90
19435;DHT22;9853;50.848;4.108;2023-04-03T15:45:56;10.90;99.90
19435;DHT22;9853;50.848;4.108;2023-04-03T15:47:58;10.90;99.90
19435;DHT22;9853;50.848;4.108;2023-04-03T15:49:59;10.80;99.90
19435;DHT22;9853;50.848;4.108;2023-04-03T15:52:00;10.80;99.90
19435;DHT22;9853;50.848;4.108;2023-04-03T15:54:01;10.80;99.90
19435;DHT22;9853;50.848;4.108;2023-04-03T15:56:01;10.70;99.90
19435;DHT22;9853;50.848;4.108;2023-04-03T15:58:03;10.80;99.90
19435;DHT22;9853;50.848;4.108;2023-04-03T16:00:04;10.80;99.90
19435;DHT22;9853;50.848;4.108;2023-04-03T16:02:08;11.00;99.90
19435;DHT22;9853;50.848;4.108;2023-04-03T16:04:10;11.00;99.90